sensor_id;sensor_type;location;lat;lon;timestamp;pressure;altitude;pressure_sealevel;temperature;humidity
76054;BME280;64752;48.870;9.082;2022-10-28T15:13:41;98661.00;;;22.85;59.16
76054;BME280;64752;48.870;9.082;2022-10-28T15:16:21;98667.25;;;22.84;59.02
76054;BME280;64752;48.870;9.082;2022-10-28T15:18:49;98656.84;;;22.69;60.56
76054;BME280;64752;48.870;9.082;2022-10-28T15:21:16;98663.19;;;22.31;62.29
76054;BME280;64752;48.870;9.082;2022-10-28T15:23:43;98659.38;;;22.23;62.79
76054;BME280;64752;48.870;9.082;2022-10-28T15:26:14;98663.63;;;22.12;62.88
76054;BME280;64752;48.870;9.082;2022-10-28T15:28:41;98656.75;;;21.86;64.22
76054;BME280;64752;48.870;9.082;2022-10-28T15:31:06;98655.44;;;21.91;63.18
76054;BME280;64752;48.870;9.082;2022-10-28T15:33:37;98654.63;;;21.91;62.85
76054;BME280;64752;48.870;9.082;2022-10-28T15:38:42;98653.69;;;21.79;63.19
76054;BME280;64752;48.870;9.082;2022-10-28T15:43:57;98648.13;;;21.45;65.01
76054;BME280;64752;48.870;9.082;2022-10-28T15:46:24;98654.66;;;21.40;65.02
76054;BME280;64752;48.870;9.082;2022-10-28T15:48:54;98647.88;;;21.35;65.20
76054;BME280;64752;48.870;9.082;2022-10-28T15:51:20;98644.75;;;21.30;65.33
76054;BME280;64752;48.870;9.082;2022-10-28T15:53:53;98643.22;;;21.13;65.38
76054;BME280;64752;48.870;9.082;2022-10-28T15:56:24;98639.53;;;21.03;65.37
76054;BME280;64752;48.870;9.082;2022-10-28T16:03:59;98661.03;;;20.97;66.16
76054;BME280;64752;48.870;9.082;2022-10-28T16:09:15;98665.53;;;20.82;67.47
76054;BME280;64752;48.870;9.082;2022-10-28T16:11:48;98663.44;;;20.74;67.76
76054;BME280;64752;48.870;9.082;2022-10-28T16:19:48;98662.56;;;20.47;67.55
76054;BME280;64752;48.870;9.082;2022-10-28T16:22:16;98663.63;;;20.44;67.03
76054;BME280;64752;48.870;9.082;2022-10-28T16:24:42;98674.56;;;20.38;67.59
76054;BME280;64752;48.870;9.082;2022-10-28T16:27:34;98667.47;;;20.26;68.20
76054;BME280;64752;48.870;9.082;2022-10-28T16:30:03;98674.59;;;20.23;67.65
76054;BME280;64752;48.870;9.082;2022-10-28T16:34:56;98678.38;;;20.19;66.89
76054;BME280;64752;48.870;9.082;2022-10-28T16:37:25;98680.44;;;20.14;66.60
76054;BME280;64752;48.870;9.082;2022-10-28T16:39:51;98686.09;;;20.08;66.33
76054;BME280;64752;48.870;9.082;2022-10-28T16:42:17;98693.66;;;20.00;66.55
76054;BME280;64752;48.870;9.082;2022-10-28T16:44:43;98683.31;;;19.82;67.38
76054;BME280;64752;48.870;9.082;2022-10-28T16:47:13;98693.91;;;19.67;67.64
76054;BME280;64752;48.870;9.082;2022-10-28T16:49:39;98699.19;;;19.52;67.16
76054;BME280;64752;48.870;9.082;2022-10-28T16:52:05;98698.78;;;19.44;67.19
76054;BME280;64752;48.870;9.082;2022-10-28T16:54:30;98700.00;;;19.38;67.18
76054;BME280;64752;48.870;9.082;2022-10-28T16:56:58;98707.41;;;19.32;67.67
76054;BME280;64752;48.870;9.082;2022-10-28T16:59:24;98708.94;;;19.64;65.10
76054;BME280;64752;48.870;9.082;2022-10-28T17:01:49;98700.50;;;19.45;66.11
76054;BME280;64752;48.870;9.082;2022-10-28T17:04:15;98713.78;;;19.27;68.07
76054;BME280;64752;48.870;9.082;2022-10-28T17:06:40;98706.16;;;19.09;67.55
76054;BME280;64752;48.870;9.082;2022-10-28T17:09:05;98699.38;;;19.04;67.81
76054;BME280;64752;48.870;9.082;2022-10-28T17:11:36;98696.38;;;19.11;67.70
76054;BME280;64752;48.870;9.082;2022-10-28T17:14:01;98701.38;;;19.15;68.51
76054;BME280;64752;48.870;9.082;2022-10-28T17:16:27;98696.69;;;19.06;68.79
76054;BME280;64752;48.870;9.082;2022-10-28T17:18:52;98700.00;;;18.94;69.19
76054;BME280;64752;48.870;9.082;2022-10-28T17:21:17;98701.63;;;18.80;68.97
76054;BME280;64752;48.870;9.082;2022-10-28T17:23:43;98700.38;;;18.72;69.51
76054;BME280;64752;48.870;9.082;2022-10-28T17:26:08;98699.88;;;18.81;68.27
76054;BME280;64752;48.870;9.082;2022-10-28T17:28:34;98707.13;;;18.92;68.66
76054;BME280;64752;48.870;9.082;2022-10-28T17:31:07;98708.50;;;18.67;69.09
76054;BME280;64752;48.870;9.082;2022-10-28T17:33:33;98708.50;;;18.67;68.60
76054;BME280;64752;48.870;9.082;2022-10-28T17:36:05;98705.13;;;18.65;68.69
76054;BME280;64752;48.870;9.082;2022-10-28T17:38:34;98712.84;;;18.52;68.64
76054;BME280;64752;48.870;9.082;2022-10-28T17:41:00;98721.31;;;18.41;69.23
76054;BME280;64752;48.870;9.082;2022-10-28T17:43:26;98715.00;;;18.45;68.97
76054;BME280;64752;48.870;9.082;2022-10-28T17:45:51;98725.53;;;18.60;67.94
76054;BME280;64752;48.870;9.082;2022-10-28T17:48:19;98728.25;;;18.90;66.81
76054;BME280;64752;48.870;9.082;2022-10-28T17:50:52;98727.56;;;19.17;65.55
76054;BME280;64752;48.870;9.082;2022-10-28T17:53:17;98727.81;;;18.98;66.56
76054;BME280;64752;48.870;9.082;2022-10-28T17:55:43;98728.16;;;19.22;65.31
76054;BME280;64752;48.870;9.082;2022-10-28T17:58:08;98728.47;;;19.01;66.28
76054;BME280;64752;48.870;9.082;2022-10-28T18:00:34;98731.78;;;19.05;66.48
76054;BME280;64752;48.870;9.082;2022-10-28T18:02:59;98723.75;;;18.92;66.66
76054;BME280;64752;48.870;9.082;2022-10-28T18:05:24;98726.13;;;18.65;67.67
76054;BME280;64752;48.870;9.082;2022-10-28T18:07:53;98724.69;;;18.43;68.95
76054;BME280;64752;48.870;9.082;2022-10-28T18:10:18;98719.13;;;18.18;69.50
76054;BME280;64752;48.870;9.082;2022-10-28T18:12:45;98712.69;;;18.07;69.96
76054;BME280;64752;48.870;9.082;2022-10-28T18:15:13;98719.19;;;18.00;70.19
76054;BME280;64752;48.870;9.082;2022-10-28T18:17:38;98721.28;;;17.94;70.47
76054;BME280;64752;48.870;9.082;2022-10-28T18:20:04;98723.34;;;17.71;71.58
76054;BME280;64752;48.870;9.082;2022-10-28T18:22:30;98728.22;;;17.61;72.02
76054;BME280;64752;48.870;9.082;2022-10-28T18:24:55;98731.41;;;17.50;72.43
76054;BME280;64752;48.870;9.082;2022-10-28T18:27:20;98726.53;;;17.60;72.10
76054;BME280;64752;48.870;9.082;2022-10-28T18:29:46;98722.91;;;17.63;72.23
76054;BME280;64752;48.870;9.082;2022-10-28T18:32:11;98723.75;;;17.63;71.74
76054;BME280;64752;48.870;9.082;2022-10-28T18:34:36;98734.94;;;17.67;71.78
76054;BME280;64752;48.870;9.082;2022-10-28T18:37:02;98732.66;;;17.43;72.22
76054;BME280;64752;48.870;9.082;2022-10-28T18:39:32;98745.47;;;17.32;73.03
76054;BME280;64752;48.870;9.082;2022-10-28T18:41:57;98735.84;;;17.15;73.56
76054;BME280;64752;48.870;9.082;2022-10-28T18:44:23;98735.66;;;17.36;72.63
76054;BME280;64752;48.870;9.082;2022-10-28T18:46:55;98733.75;;;17.39;72.58
76054;BME280;64752;48.870;9.082;2022-10-28T18:49:21;98733.47;;;17.44;72.53
76054;BME280;64752;48.870;9.082;2022-10-28T18:51:46;98739.59;;;17.44;72.40
76054;BME280;64752;48.870;9.082;2022-10-28T18:54:11;98738.59;;;17.29;74.40
76054;BME280;64752;48.870;9.082;2022-10-28T18:56:37;98745.59;;;17.46;72.11
76054;BME280;64752;48.870;9.082;2022-10-28T18:59:03;98735.69;;;17.69;70.96
76054;BME280;64752;48.870;9.082;2022-10-28T19:01:29;98737.00;;;17.78;70.44
76054;BME280;64752;48.870;9.082;2022-10-28T19:03:57;98742.47;;;18.06;69.47
76054;BME280;64752;48.870;9.082;2022-10-28T19:06:24;98743.72;;;18.33;68.32
76054;BME280;64752;48.870;9.082;2022-10-28T19:08:54;98740.72;;;18.39;67.82
76054;BME280;64752;48.870;9.082;2022-10-28T19:11:21;98740.28;;;18.30;68.18
76054;BME280;64752;48.870;9.082;2022-10-28T19:13:47;98732.25;;;18.49;67.03
76054;BME280;64752;48.870;9.082;2022-10-28T19:16:12;98743.09;;;18.43;67.69
76054;BME280;64752;48.870;9.082;2022-10-28T19:18:38;98736.00;;;18.29;68.64
76054;BME280;64752;48.870;9.082;2022-10-28T19:21:10;98727.59;;;18.23;68.36
76054;BME280;64752;48.870;9.082;2022-10-28T19:23:36;98723.03;;;18.10;68.86
76054;BME280;64752;48.870;9.082;2022-10-28T19:26:02;98727.78;;;17.86;69.72
76054;BME280;64752;48.870;9.082;2022-10-28T19:28:29;98726.91;;;17.70;70.54
76054;BME280;64752;48.870;9.082;2022-10-28T19:30:59;98730.09;;;17.42;73.26
76054;BME280;64752;48.870;9.082;2022-10-28T19:33:26;98731.34;;;17.17;72.49
76054;BME280;64752;48.870;9.082;2022-10-28T19:35:51;98733.44;;;17.28;72.35
76054;BME280;64752;48.870;9.082;2022-10-28T19:38:16;98737.88;;;17.26;71.91
76054;BME280;64752;48.870;9.082;2022-10-28T19:40:42;98738.09;;;17.39;71.77
76054;BME280;64752;48.870;9.082;2022-10-28T19:43:07;98727.56;;;17.73;70.12
76054;BME280;64752;48.870;9.082;2022-10-28T19:45:32;98733.16;;;17.85;69.88
76054;BME280;64752;48.870;9.082;2022-10-28T19:47:59;98735.75;;;17.67;70.35
76054;BME280;64752;48.870;9.082;2022-10-28T19:50:33;98736.09;;;17.61;70.46
76054;BME280;64752;48.870;9.082;2022-10-28T19:52:58;98734.69;;;17.89;68.80
76054;BME280;64752;48.870;9.082;2022-10-28T19:55:24;98731.63;;;17.46;70.87
76054;BME280;64752;48.870;9.082;2022-10-28T19:57:49;98738.97;;;17.22;71.77
76054;BME280;64752;48.870;9.082;2022-10-28T20:00:14;98738.53;;;17.13;72.15
76054;BME280;64752;48.870;9.082;2022-10-28T20:02:40;98742.00;;;17.14;72.23
76054;BME280;64752;48.870;9.082;2022-10-28T20:05:05;98740.72;;;17.56;70.01
76054;BME280;64752;48.870;9.082;2022-10-28T20:07:31;98740.69;;;17.23;71.91
76054;BME280;64752;48.870;9.082;2022-10-28T20:09:56;98733.50;;;17.09;71.91
76054;BME280;64752;48.870;9.082;2022-10-28T20:12:22;98741.88;;;16.98;71.95
76054;BME280;64752;48.870;9.082;2022-10-28T20:14:47;98752.16;;;17.03;71.93
76054;BME280;64752;48.870;9.082;2022-10-28T20:17:12;98755.84;;;17.16;71.21
76054;BME280;64752;48.870;9.082;2022-10-28T20:19:39;98760.72;;;17.24;70.97
76054;BME280;64752;48.870;9.082;2022-10-28T20:22:04;98754.78;;;17.20;70.84
76054;BME280;64752;48.870;9.082;2022-10-28T20:24:30;98753.06;;;17.02;71.78
76054;BME280;64752;48.870;9.082;2022-10-28T20:26:55;98751.84;;;17.09;70.84
76054;BME280;64752;48.870;9.082;2022-10-28T20:29:20;98762.25;;;16.93;71.56
76054;BME280;64752;48.870;9.082;2022-10-28T20:31:46;98760.84;;;17.03;70.64
76054;BME280;64752;48.870;9.082;2022-10-28T20:34:11;98756.34;;;17.24;69.67
76054;BME280;64752;48.870;9.082;2022-10-28T20:36:38;98755.69;;;17.02;70.09
76054;BME280;64752;48.870;9.082;2022-10-28T20:39:11;98763.22;;;16.90;70.73
76054;BME280;64752;48.870;9.082;2022-10-28T20:41:38;98766.34;;;16.80;71.88
76054;BME280;64752;48.870;9.082;2022-10-28T20:44:04;98769.41;;;16.70;71.90
76054;BME280;64752;48.870;9.082;2022-10-28T20:46:30;98773.50;;;16.76;71.18
76054;BME280;64752;48.870;9.082;2022-10-28T20:48:55;98776.44;;;16.51;71.78
76054;BME280;64752;48.870;9.082;2022-10-28T20:51:23;98788.47;;;16.36;72.12
76054;BME280;64752;48.870;9.082;2022-10-28T20:53:49;98783.00;;;16.41;71.28
76054;BME280;64752;48.870;9.082;2022-10-28T20:56:19;98789.22;;;16.19;72.18
76054;BME280;64752;48.870;9.082;2022-10-28T20:58:45;98799.28;;;16.09;72.89
76054;BME280;64752;48.870;9.082;2022-10-28T21:01:17;98794.16;;;16.06;72.54
76054;BME280;64752;48.870;9.082;2022-10-28T21:03:43;98791.25;;;15.93;73.20
76054;BME280;64752;48.870;9.082;2022-10-28T21:06:10;98789.31;;;15.78;73.41
76054;BME280;64752;48.870;9.082;2022-10-28T21:08:36;98790.38;;;15.74;74.00
76054;BME280;64752;48.870;9.082;2022-10-28T21:11:06;98794.59;;;15.56;75.04
76054;BME280;64752;48.870;9.082;2022-10-28T21:13:32;98786.47;;;15.41;75.10
76054;BME280;64752;48.870;9.082;2022-10-28T21:15:58;98793.41;;;15.42;75.90
76054;BME280;64752;48.870;9.082;2022-10-28T21:18:27;98794.59;;;15.56;75.13
76054;BME280;64752;48.870;9.082;2022-10-28T21:20:56;98795.53;;;16.15;72.31
76054;BME280;64752;48.870;9.082;2022-10-28T21:23:22;98785.81;;;16.74;69.91
76054;BME280;64752;48.870;9.082;2022-10-28T21:25:52;98781.78;;;17.40;67.10
76054;BME280;64752;48.870;9.082;2022-10-28T21:28:18;98787.50;;;16.94;69.27
76054;BME280;64752;48.870;9.082;2022-10-28T21:30:43;98792.34;;;17.21;68.39
76054;BME280;64752;48.870;9.082;2022-10-28T21:33:08;98800.34;;;17.00;69.16
76054;BME280;64752;48.870;9.082;2022-10-28T21:35:35;98807.78;;;16.90;68.83
76054;BME280;64752;48.870;9.082;2022-10-28T21:38:01;98802.78;;;16.86;68.25
76054;BME280;64752;48.870;9.082;2022-10-28T21:40:26;98788.16;;;17.17;67.21
76054;BME280;64752;48.870;9.082;2022-10-28T21:42:51;98789.72;;;17.38;65.74
76054;BME280;64752;48.870;9.082;2022-10-28T21:45:17;98784.06;;;17.46;65.87
76054;BME280;64752;48.870;9.082;2022-10-28T21:47:42;98790.53;;;17.39;66.57
76054;BME280;64752;48.870;9.082;2022-10-28T21:50:08;98791.56;;;17.19;67.42
76054;BME280;64752;48.870;9.082;2022-10-28T21:52:33;98788.72;;;17.23;67.01
76054;BME280;64752;48.870;9.082;2022-10-28T21:54:58;98794.84;;;17.05;68.41
76054;BME280;64752;48.870;9.082;2022-10-28T21:57:28;98791.63;;;16.81;69.01
76054;BME280;64752;48.870;9.082;2022-10-28T21:59:54;98802.84;;;16.65;69.85
76054;BME280;64752;48.870;9.082;2022-10-28T22:02:20;98802.91;;;16.64;69.81
76054;BME280;64752;48.870;9.082;2022-10-28T22:04:45;98806.94;;;16.71;69.51
76054;BME280;64752;48.870;9.082;2022-10-28T22:07:10;98800.50;;;16.78;68.85
76054;BME280;64752;48.870;9.082;2022-10-28T22:09:36;98800.63;;;16.75;68.86
76054;BME280;64752;48.870;9.082;2022-10-28T22:12:01;98794.88;;;16.67;69.15
76054;BME280;64752;48.870;9.082;2022-10-28T22:14:27;98805.78;;;16.57;70.06
76054;BME280;64752;48.870;9.082;2022-10-28T22:16:53;98804.25;;;16.34;70.61
76054;BME280;64752;48.870;9.082;2022-10-28T22:19:18;98809.44;;;16.36;70.49
76054;BME280;64752;48.870;9.082;2022-10-28T22:21:43;98808.72;;;16.32;70.55
76054;BME280;64752;48.870;9.082;2022-10-28T22:24:09;98810.38;;;16.33;70.88
76054;BME280;64752;48.870;9.082;2022-10-28T22:26:34;98810.56;;;16.10;71.64
76054;BME280;64752;48.870;9.082;2022-10-28T22:29:00;98815.47;;;15.78;72.73
76054;BME280;64752;48.870;9.082;2022-10-28T22:31:28;98818.56;;;15.66;73.97
76054;BME280;64752;48.870;9.082;2022-10-28T22:33:54;98826.84;;;15.77;73.34
76054;BME280;64752;48.870;9.082;2022-10-28T22:36:23;98827.69;;;15.77;73.08
76054;BME280;64752;48.870;9.082;2022-10-28T22:38:49;98832.22;;;15.74;73.55
76054;BME280;64752;48.870;9.082;2022-10-28T22:41:23;98829.47;;;15.55;74.08
76054;BME280;64752;48.870;9.082;2022-10-28T22:43:53;98828.81;;;15.29;75.25
76054;BME280;64752;48.870;9.082;2022-10-28T22:46:20;98823.72;;;15.26;75.87
76054;BME280;64752;48.870;9.082;2022-10-28T22:48:46;98831.50;;;15.06;76.25
76054;BME280;64752;48.870;9.082;2022-10-28T22:51:12;98832.31;;;14.86;77.08
76054;BME280;64752;48.870;9.082;2022-10-28T22:53:38;98838.66;;;14.78;77.91
76054;BME280;64752;48.870;9.082;2022-10-28T22:56:04;98838.56;;;14.81;77.61
76054;BME280;64752;48.870;9.082;2022-10-28T22:58:30;98844.78;;;14.99;76.84
76054;BME280;64752;48.870;9.082;2022-10-28T23:01:12;98838.78;;;14.97;77.00
76054;BME280;64752;48.870;9.082;2022-10-28T23:03:42;98846.88;;;14.91;77.62
76054;BME280;64752;48.870;9.082;2022-10-28T23:06:09;98838.91;;;14.72;78.01
76054;BME280;64752;48.870;9.082;2022-10-28T23:08:39;98840.59;;;14.50;79.01
76054;BME280;64752;48.870;9.082;2022-10-28T23:11:06;98844.66;;;14.58;78.81
76054;BME280;64752;48.870;9.082;2022-10-28T23:13:31;98832.13;;;14.67;78.07
76054;BME280;64752;48.870;9.082;2022-10-28T23:16:05;98829.66;;;14.63;78.59
76054;BME280;64752;48.870;9.082;2022-10-28T23:18:33;98836.25;;;14.50;78.87
76054;BME280;64752;48.870;9.082;2022-10-28T23:21:06;98841.91;;;14.38;79.77
76054;BME280;64752;48.870;9.082;2022-10-28T23:23:33;98845.22;;;14.43;79.13
76054;BME280;64752;48.870;9.082;2022-10-28T23:25:59;98837.75;;;14.56;79.01
76054;BME280;64752;48.870;9.082;2022-10-28T23:28:24;98837.59;;;14.37;78.99
76054;BME280;64752;48.870;9.082;2022-10-28T23:30:50;98838.38;;;14.39;79.09
76054;BME280;64752;48.870;9.082;2022-10-28T23:33:15;98831.06;;;14.49;78.76
76054;BME280;64752;48.870;9.082;2022-10-28T23:35:40;98832.81;;;14.48;78.78
76054;BME280;64752;48.870;9.082;2022-10-28T23:38:07;98841.56;;;14.23;79.81
76054;BME280;64752;48.870;9.082;2022-10-28T23:40:35;98834.03;;;14.16;79.93
76054;BME280;64752;48.870;9.082;2022-10-28T23:43:00;98836.72;;;14.13;80.39
76054;BME280;64752;48.870;9.082;2022-10-28T23:45:26;98841.25;;;14.07;80.48
76054;BME280;64752;48.870;9.082;2022-10-28T23:47:51;98840.75;;;13.98;80.68
76054;BME280;64752;48.870;9.082;2022-10-28T23:50:16;98832.81;;;14.01;80.59
76054;BME280;64752;48.870;9.082;2022-10-28T23:52:42;98833.88;;;13.95;80.69
76054;BME280;64752;48.870;9.082;2022-10-28T23:55:07;98835.47;;;13.99;80.82
76054;BME280;64752;48.870;9.082;2022-10-28T23:57:33;98832.34;;;13.90;81.01
76054;BME280;64752;48.870;9.082;2022-10-28T23:59:58;98837.16;;;13.77;81.43
